createdAt,value
2023-02-03T00:00:08.562Z,54
2023-02-03T00:01:17.865Z,49
2023-02-03T00:02:26.901Z,49
2023-02-03T00:03:35.244Z,55
2023-02-03T00:04:45.356Z,47
2023-02-03T00:05:53.809Z,53
2023-02-03T00:07:01.533Z,52
2023-02-03T00:08:10.520Z,43
2023-02-03T00:09:19.454Z,49
2023-02-03T00:10:29.737Z,56
2023-02-03T00:11:38.334Z,45
2023-02-03T00:12:47.427Z,45
2023-02-03T00:13:56.651Z,48
2023-02-03T00:15:04.913Z,39
2023-02-03T00:16:14.007Z,42
2023-02-03T00:17:23.194Z,38
2023-02-03T00:18:31.646Z,39
2023-02-03T00:19:43.242Z,49
2023-02-03T00:20:52.083Z,44
2023-02-03T00:22:00.443Z,61
2023-02-03T00:23:08.364Z,48
2023-02-03T00:24:19.033Z,50
2023-02-03T00:25:28.468Z,54
2023-02-03T00:26:36.047Z,43
2023-02-03T00:27:47.860Z,53
2023-02-03T00:28:57.956Z,47
2023-02-03T00:30:07.619Z,46
2023-02-03T00:31:16.817Z,45
2023-02-03T00:32:26.096Z,36
2023-02-03T00:33:34.490Z,40
2023-02-03T00:34:42.800Z,42
2023-02-03T00:35:50.343Z,44
2023-02-03T00:36:59.821Z,43
2023-02-03T00:38:08.224Z,42
2023-02-03T00:39:17.751Z,33
2023-02-03T00:40:28.367Z,55
2023-02-03T00:41:37.574Z,39
2023-02-03T00:42:45.784Z,35
2023-02-03T00:43:54.759Z,44
2023-02-03T00:45:04.274Z,32
2023-02-03T00:46:12.628Z,36
2023-02-03T00:47:21.419Z,37
2023-02-03T00:48:29.410Z,40
2023-02-03T00:49:38.933Z,33
2023-02-03T00:50:47.307Z,43
2023-02-03T00:51:56.181Z,45
2023-02-03T00:53:03.642Z,42
2023-02-03T00:54:13.570Z,39
2023-02-03T00:55:23.477Z,46
2023-02-03T00:56:32.511Z,58
2023-02-03T00:57:42.355Z,42
2023-02-03T00:58:50.811Z,31
2023-02-03T01:00:00.362Z,40
2023-02-03T01:01:08.877Z,31
2023-02-03T01:02:18.206Z,27
2023-02-03T01:03:27.715Z,29
2023-02-03T01:04:37.753Z,37
2023-02-03T01:05:45.729Z,38
2023-02-03T01:06:53.570Z,44
2023-02-03T01:08:02.524Z,43
2023-02-03T01:09:11.407Z,50
2023-02-03T01:10:19.778Z,49
2023-02-03T01:11:28.414Z,50
2023-02-03T01:12:38.142Z,41
2023-02-03T01:13:47.477Z,37
2023-02-03T01:14:57.174Z,36
2023-02-03T01:16:05.741Z,40
2023-02-03T01:17:17.299Z,40
2023-02-03T01:18:27.221Z,43
2023-02-03T01:19:35.955Z,31
2023-02-03T01:20:45.497Z,25
2023-02-03T01:21:53.802Z,33
2023-02-03T01:23:03.509Z,32
2023-02-03T01:24:11.946Z,30
2023-02-03T01:25:19.917Z,42
2023-02-03T01:26:29.091Z,37
2023-02-03T01:27:38.423Z,44
2023-02-03T01:28:47.339Z,31
2023-02-03T01:30:01.601Z,33
2023-02-03T01:31:11.795Z,35
2023-02-03T01:32:19.469Z,30
2023-02-03T01:33:27.446Z,38
2023-02-03T01:34:35.033Z,28
2023-02-03T01:35:44.642Z,29
2023-02-03T01:36:53.269Z,31
2023-02-03T01:38:00.510Z,29
2023-02-03T01:39:09.932Z,44
2023-02-03T01:40:18.935Z,43
2023-02-03T01:41:27.898Z,43
2023-02-03T01:42:35.813Z,51
2023-02-03T01:43:43.238Z,34
2023-02-03T01:44:54.473Z,38
2023-02-03T01:46:03.968Z,34
2023-02-03T01:47:13.250Z,37
2023-02-03T01:48:27.579Z,38
2023-02-03T01:49:40.472Z,38
2023-02-03T01:50:53.291Z,25
2023-02-03T01:52:01.857Z,32
2023-02-03T01:53:10.835Z,27
2023-02-03T01:54:18.849Z,30
2023-02-03T01:55:33.042Z,39
2023-02-03T01:56:41.092Z,34
2023-02-03T01:57:49.927Z,33
2023-02-03T01:59:01.839Z,38
2023-02-03T02:00:10.268Z,35
2023-02-03T02:01:20.008Z,29
2023-02-03T02:02:27.633Z,29
2023-02-03T02:03:35.275Z,31
2023-02-03T02:04:44.607Z,28
2023-02-03T02:05:59.555Z,29
2023-02-03T02:07:09.671Z,31
2023-02-03T02:08:16.842Z,35
2023-02-03T02:09:25.555Z,42
2023-02-03T02:10:36.791Z,38
2023-02-03T02:11:46.393Z,45
2023-02-03T02:12:57.828Z,38
2023-02-03T02:14:05.875Z,37
2023-02-03T02:15:14.515Z,39
2023-02-03T02:16:23.975Z,38
2023-02-03T02:17:41.003Z,39
2023-02-03T02:18:59.343Z,37
2023-02-03T02:20:16.301Z,45
2023-02-03T02:21:30.522Z,36
2023-02-03T02:22:46.184Z,49
2023-02-03T02:24:02.564Z,37
2023-02-03T02:25:20.124Z,45
2023-02-03T02:26:35.239Z,42
2023-02-03T02:27:49.016Z,52
2023-02-03T02:29:01.614Z,46
2023-02-03T02:30:13.900Z,48
2023-02-03T02:31:24.798Z,47
2023-02-03T02:32:43.642Z,48
2023-02-03T02:34:03.616Z,49
2023-02-03T02:35:14.894Z,48
2023-02-03T02:36:25.225Z,52
2023-02-03T02:37:38.879Z,51
2023-02-03T02:38:53.701Z,51
2023-02-03T02:40:08.167Z,56
2023-02-03T02:41:21.922Z,56
2023-02-03T02:42:40.042Z,52
2023-02-03T02:43:55.361Z,59
2023-02-03T02:45:07.257Z,67
2023-02-03T02:46:15.026Z,67
2023-02-03T02:47:24.079Z,61
2023-02-03T02:48:32.751Z,59
2023-02-03T02:49:42.181Z,57
2023-02-03T02:50:56.380Z,62
2023-02-03T02:52:05.983Z,58
2023-02-03T02:53:14.759Z,65
2023-02-03T02:54:23.814Z,63
2023-02-03T02:55:32.977Z,68
2023-02-03T02:56:40.379Z,70
2023-02-03T02:57:50.387Z,68
2023-02-03T02:58:58.718Z,67
2023-02-03T03:00:07.275Z,69
2023-02-03T03:01:15.854Z,60
2023-02-03T03:02:24.346Z,67
2023-02-03T03:03:37.959Z,63
2023-02-03T03:04:46.614Z,75
2023-02-03T03:05:55.869Z,75
2023-02-03T03:07:06.154Z,87
2023-02-03T03:08:19.150Z,87
2023-02-03T03:09:27.543Z,77
2023-02-03T03:10:35.299Z,82
2023-02-03T03:11:44.145Z,84
2023-02-03T03:12:54.523Z,83
2023-02-03T03:14:03.399Z,90
2023-02-03T03:15:11.444Z,93
2023-02-03T03:16:20.681Z,91
2023-02-03T03:17:29.514Z,83
2023-02-03T03:18:39.844Z,85
2023-02-03T03:19:47.872Z,76
2023-02-03T03:20:56.773Z,81
2023-02-03T03:22:05.364Z,77
2023-02-03T03:23:14.864Z,73
2023-02-03T03:24:28.033Z,77
2023-02-03T03:25:38.264Z,76
2023-02-03T03:26:47.022Z,74
2023-02-03T03:28:00.826Z,76
2023-02-03T03:29:10.634Z,82
2023-02-03T03:30:30.644Z,83
2023-02-03T03:31:37.962Z,88
2023-02-03T03:32:50.977Z,83
2023-02-03T03:34:02.474Z,88
2023-02-03T03:35:10.999Z,84
2023-02-03T03:36:19.345Z,81
2023-02-03T03:37:29.930Z,80
2023-02-03T03:38:40.018Z,80
2023-02-03T03:39:51.359Z,94
2023-02-03T03:41:02.667Z,92
2023-02-03T03:42:10.893Z,94
2023-02-03T03:43:24.418Z,110
2023-02-03T03:44:34.982Z,114
2023-02-03T03:45:43.608Z,116
2023-02-03T03:47:00.569Z,129
2023-02-03T03:48:11.485Z,130
2023-02-03T03:49:22.334Z,137
2023-02-03T03:50:30.447Z,132
2023-02-03T03:51:44.775Z,130
2023-02-03T03:52:54.227Z,136
2023-02-03T03:54:03.658Z,134
2023-02-03T03:55:14.139Z,133
2023-02-03T03:56:23.623Z,133
2023-02-03T03:57:33.443Z,134
2023-02-03T03:58:48.928Z,123
2023-02-03T03:59:57.600Z,123
2023-02-03T04:01:09.061Z,121
2023-02-03T04:02:19.547Z,127
2023-02-03T04:03:28.062Z,120
2023-02-03T04:04:35.711Z,113
2023-02-03T04:05:43.364Z,115
2023-02-03T04:06:53.184Z,110
2023-02-03T04:08:01.333Z,110
2023-02-03T04:09:10.019Z,106
2023-02-03T04:10:18.876Z,102
2023-02-03T04:11:34.127Z,101
2023-02-03T04:12:47.792Z,98
2023-02-03T04:13:56.476Z,99
2023-02-03T04:15:04.389Z,101
2023-02-03T04:16:13.695Z,100
2023-02-03T04:17:23.243Z,90
2023-02-03T04:18:31.115Z,85
2023-02-03T04:19:39.352Z,91
2023-02-03T04:20:48.672Z,82
2023-02-03T04:21:57.177Z,86
2023-02-03T04:23:04.910Z,84
2023-02-03T04:24:13.042Z,77
2023-02-03T04:25:20.672Z,79
2023-02-03T04:26:27.990Z,90
2023-02-03T04:27:36.519Z,79
2023-02-03T04:28:44.208Z,89
2023-02-03T04:29:52.362Z,96
2023-02-03T04:30:59.760Z,97
2023-02-03T04:32:08.094Z,99
2023-02-03T04:33:17.794Z,86
2023-02-03T04:34:25.462Z,83
2023-02-03T04:35:34.031Z,81
2023-02-03T04:36:42.653Z,79
2023-02-03T04:37:51.543Z,77
2023-02-03T04:39:01.343Z,75
2023-02-03T04:40:09.346Z,75
2023-02-03T04:41:17.370Z,72
2023-02-03T04:42:27.646Z,75
2023-02-03T04:43:36.868Z,69
2023-02-03T04:44:45.412Z,72
2023-02-03T04:45:53.773Z,69
2023-02-03T04:47:03.530Z,63
2023-02-03T04:48:11.637Z,67
2023-02-03T04:49:22.156Z,70
2023-02-03T04:50:31.983Z,65
2023-02-03T04:51:39.489Z,66
2023-02-03T04:52:48.796Z,65
2023-02-03T04:53:56.407Z,67
2023-02-03T04:55:07.750Z,63
2023-02-03T04:56:17.940Z,64
2023-02-03T04:57:28.326Z,69
2023-02-03T04:58:36.135Z,66
2023-02-03T04:59:44.736Z,72
2023-02-03T05:00:57.920Z,74
2023-02-03T05:02:06.356Z,68
2023-02-03T05:03:16.272Z,74
2023-02-03T05:04:24.838Z,64
2023-02-03T05:05:33.275Z,68
2023-02-03T05:06:43.321Z,72
2023-02-03T05:07:52.924Z,68
2023-02-03T05:09:01.157Z,69
2023-02-03T05:10:11.082Z,73
2023-02-03T05:11:18.348Z,66
2023-02-03T05:12:27.822Z,73
2023-02-03T05:13:37.057Z,70
2023-02-03T05:14:45.252Z,69
2023-02-03T05:15:54.191Z,66
2023-02-03T05:17:04.584Z,66
2023-02-03T05:18:13.997Z,70
2023-02-03T05:19:22.245Z,72
2023-02-03T05:20:31.560Z,65
2023-02-03T05:21:40.412Z,63
2023-02-03T05:22:49.757Z,60
2023-02-03T05:23:58.951Z,70
2023-02-03T05:25:08.996Z,63
2023-02-03T05:26:17.041Z,53
2023-02-03T05:27:28.460Z,54
2023-02-03T05:28:36.080Z,60
2023-02-03T05:29:46.377Z,55
2023-02-03T05:30:57.290Z,51
2023-02-03T05:32:07.973Z,53
2023-02-03T05:33:16.602Z,50
2023-02-03T05:34:26.952Z,47
2023-02-03T05:35:34.855Z,55
2023-02-03T05:36:46.209Z,56
2023-02-03T05:37:53.213Z,54
2023-02-03T05:39:02.491Z,58
2023-02-03T05:40:11.329Z,60
2023-02-03T05:41:26.095Z,53
2023-02-03T05:42:39.673Z,50
2023-02-03T05:43:50.741Z,53
2023-02-03T05:44:59.543Z,54
2023-02-03T05:46:10.450Z,54
2023-02-03T05:47:18.860Z,48
2023-02-03T05:48:28.828Z,55
2023-02-03T05:49:42.946Z,55
2023-02-03T05:50:54.488Z,41
2023-02-03T05:52:01.677Z,45
2023-02-03T05:53:08.768Z,43
2023-02-03T05:54:18.823Z,39
2023-02-03T05:55:27.365Z,35
2023-02-03T05:56:36.458Z,48
2023-02-03T05:57:45.132Z,38
2023-02-03T05:58:53.757Z,40
2023-02-03T06:00:02.726Z,34
2023-02-03T06:01:13.188Z,34
2023-02-03T06:02:24.877Z,34
2023-02-03T06:03:32.622Z,29
2023-02-03T06:04:43.056Z,25
2023-02-03T06:05:52.057Z,31
2023-02-03T06:07:03.777Z,31
2023-02-03T06:08:11.371Z,26
2023-02-03T06:09:21.012Z,33
2023-02-03T06:10:29.966Z,25
2023-02-03T06:11:39.292Z,28
2023-02-03T06:12:49.156Z,27
2023-02-03T06:13:59.256Z,25
2023-02-03T06:15:06.675Z,33
2023-02-03T06:16:15.701Z,28
2023-02-03T06:17:24.134Z,33
2023-02-03T06:18:32.550Z,27
2023-02-03T06:19:40.746Z,32
2023-02-03T06:20:49.043Z,36
2023-02-03T06:21:59.812Z,33
2023-02-03T06:23:09.484Z,29
2023-02-03T06:24:18.665Z,44
2023-02-03T06:25:28.878Z,43
2023-02-03T06:26:37.268Z,36
2023-02-03T06:27:46.449Z,33
2023-02-03T06:28:56.713Z,41
2023-02-03T06:30:09.092Z,34
2023-02-03T06:31:17.857Z,25
2023-02-03T06:32:29.807Z,33
2023-02-03T06:33:39.716Z,30
2023-02-03T06:34:48.337Z,31
2023-02-03T06:35:57.865Z,31
2023-02-03T06:37:07.057Z,33
2023-02-03T06:38:17.500Z,35
2023-02-03T06:39:28.530Z,26
2023-02-03T06:40:37.712Z,26
2023-02-03T06:41:47.641Z,29
2023-02-03T06:42:56.270Z,28
2023-02-03T06:44:06.036Z,35
2023-02-03T06:45:16.551Z,25
2023-02-03T06:46:25.346Z,28
2023-02-03T06:47:35.376Z,25
2023-02-03T06:48:48.111Z,26
2023-02-03T06:49:57.296Z,27
2023-02-03T06:51:06.574Z,29
2023-02-03T06:52:16.633Z,30
2023-02-03T06:53:26.762Z,41
2023-02-03T06:54:36.056Z,26
2023-02-03T06:55:45.860Z,25
2023-02-03T06:56:55.921Z,29
2023-02-03T06:58:06.733Z,31
2023-02-03T06:59:17.347Z,32
2023-02-03T07:00:27.662Z,27
2023-02-03T07:01:36.493Z,26
2023-02-03T07:02:46.234Z,25
2023-02-03T07:03:59.595Z,31
2023-02-03T07:05:07.272Z,30
2023-02-03T07:06:15.503Z,30
2023-02-03T07:07:25.303Z,28
2023-02-03T07:08:34.285Z,25
2023-02-03T07:09:44.739Z,30
2023-02-03T07:10:57.260Z,35
2023-02-03T07:12:07.802Z,28
2023-02-03T07:13:18.400Z,30
2023-02-03T07:14:30.035Z,25
2023-02-03T07:15:41.771Z,25
2023-02-03T07:16:51.001Z,30
2023-02-03T07:18:00.428Z,31
2023-02-03T07:19:11.870Z,27
2023-02-03T07:20:20.445Z,25
2023-02-03T07:21:28.487Z,26
2023-02-03T07:22:38.074Z,28
2023-02-03T07:23:48.198Z,31
2023-02-03T07:24:58.397Z,31
2023-02-03T07:26:09.935Z,34
2023-02-03T07:27:21.206Z,30
2023-02-03T07:28:31.043Z,28
2023-02-03T07:29:41.437Z,29
2023-02-03T07:30:52.055Z,27
2023-02-03T07:32:02.941Z,33
2023-02-03T07:33:11.531Z,29
2023-02-03T07:34:21.227Z,27
2023-02-03T07:35:30.778Z,27
2023-02-03T07:36:40.663Z,34
2023-02-03T07:37:52.537Z,37
2023-02-03T07:39:02.897Z,25
2023-02-03T07:40:11.979Z,30
2023-02-03T07:41:21.616Z,25
2023-02-03T07:42:31.455Z,30
2023-02-03T07:43:41.512Z,30
2023-02-03T07:44:50.336Z,28
2023-02-03T07:46:00.130Z,34
2023-02-03T07:47:09.785Z,32
2023-02-03T07:48:17.221Z,26
2023-02-03T07:49:25.268Z,28
2023-02-03T07:50:37.114Z,28
2023-02-03T07:51:45.305Z,31
2023-02-03T07:52:53.890Z,26
2023-02-03T07:54:03.956Z,28
2023-02-03T07:55:14.118Z,30
2023-02-03T07:56:22.319Z,32
2023-02-03T07:57:30.328Z,32
2023-02-03T07:58:40.408Z,35
2023-02-03T07:59:51.819Z,32
2023-02-03T08:01:00.784Z,35
2023-02-03T08:02:11.784Z,39
2023-02-03T08:03:21.185Z,41
2023-02-03T08:04:31.460Z,43
2023-02-03T08:05:40.325Z,38
2023-02-03T08:06:51.871Z,41
2023-02-03T08:08:01.537Z,41
2023-02-03T08:09:10.410Z,43
2023-02-03T08:10:19.666Z,48
2023-02-03T08:11:29.817Z,49
2023-02-03T08:12:39.507Z,48
2023-02-03T08:13:51.051Z,52
2023-02-03T08:15:00.196Z,51
2023-02-03T08:16:10.245Z,63
2023-02-03T08:17:22.025Z,65
2023-02-03T08:18:32.699Z,76
2023-02-03T08:19:40.900Z,73
2023-02-03T08:20:52.524Z,74
2023-02-03T08:22:01.451Z,94
2023-02-03T08:23:09.917Z,93
2023-02-03T08:24:18.889Z,89
2023-02-03T08:25:28.960Z,92
2023-02-03T08:26:39.423Z,112
2023-02-03T08:27:48.278Z,111
2023-02-03T08:28:59.158Z,114
2023-02-03T08:30:15.163Z,119
2023-02-03T08:31:24.677Z,121
2023-02-03T08:32:38.320Z,127
2023-02-03T08:35:24.171Z,130
2023-02-03T08:36:33.044Z,130
2023-02-03T08:37:50.396Z,137
2023-02-03T08:38:59.315Z,135
2023-02-03T08:40:08.789Z,136
2023-02-03T08:41:18.356Z,135
2023-02-03T08:42:26.335Z,135
2023-02-03T08:43:35.474Z,135
2023-02-03T08:44:46.575Z,135
2023-02-03T08:45:57.380Z,130
2023-02-03T08:47:10.574Z,131
2023-02-03T08:48:19.440Z,137
2023-02-03T08:49:29.201Z,135
2023-02-03T08:50:39.192Z,131
2023-02-03T08:51:50.456Z,134
2023-02-03T08:52:59.691Z,124
2023-02-03T08:54:11.463Z,128
2023-02-03T08:55:23.073Z,128
2023-02-03T08:56:31.138Z,133
2023-02-03T08:57:40.782Z,128
2023-02-03T08:58:50.007Z,132
2023-02-03T09:00:00.135Z,132
2023-02-03T09:01:13.608Z,135
2023-02-03T09:02:25.067Z,131
2023-02-03T09:03:37.546Z,130
2023-02-03T09:04:48.971Z,131
2023-02-03T09:06:00.952Z,129
2023-02-03T09:07:14.150Z,129
2023-02-03T09:08:24.130Z,133
2023-02-03T09:09:34.279Z,133
2023-02-03T09:10:44.268Z,131
2023-02-03T09:11:53.431Z,126
2023-02-03T09:13:04.421Z,132
2023-02-03T09:14:15.214Z,129
2023-02-03T09:15:26.795Z,132
2023-02-03T09:16:35.848Z,133
2023-02-03T09:17:45.450Z,130
2023-02-03T09:18:55.671Z,142
2023-02-03T09:20:05.286Z,133
2023-02-03T09:21:21.025Z,132
2023-02-03T09:22:25.683Z,138
2023-02-03T09:23:36.778Z,142
2023-02-03T09:24:46.415Z,139
2023-02-03T09:25:58.031Z,134
2023-02-03T09:27:08.145Z,140
2023-02-03T09:28:19.653Z,137
2023-02-03T09:29:30.464Z,136
2023-02-03T09:30:40.922Z,139
2023-02-03T09:31:53.083Z,137
2023-02-03T09:33:02.240Z,134
2023-02-03T09:34:12.904Z,150
2023-02-03T09:35:23.928Z,145
2023-02-03T09:36:33.444Z,140
2023-02-03T09:37:42.283Z,143
2023-02-03T09:38:52.303Z,138
2023-02-03T09:40:04.982Z,143
2023-02-03T09:41:13.988Z,141
2023-02-03T09:42:27.728Z,140
2023-02-03T09:43:47.889Z,143
2023-02-03T09:45:03.539Z,140
2023-02-03T09:46:13.179Z,142
2023-02-03T09:47:26.682Z,141
2023-02-03T09:48:37.787Z,141
2023-02-03T09:49:52.115Z,139
2023-02-03T09:51:06.710Z,132
2023-02-03T09:52:24.514Z,141
2023-02-03T09:53:40.414Z,138
2023-02-03T09:54:51.954Z,137
2023-02-03T09:56:08.667Z,135
2023-02-03T09:57:23.238Z,138
2023-02-03T09:58:32.587Z,133
2023-02-03T09:59:43.259Z,136
2023-02-03T10:00:52.824Z,129
2023-02-03T10:02:04.557Z,130
2023-02-03T10:03:17.317Z,132
2023-02-03T10:04:39.399Z,134
2023-02-03T10:05:48.227Z,133
2023-02-03T10:07:02.336Z,131
2023-02-03T10:08:18.608Z,131
2023-02-03T10:09:31.570Z,136
2023-02-03T10:10:49.433Z,129
2023-02-03T10:12:10.492Z,131
2023-02-03T10:13:27.691Z,128
2023-02-03T10:14:38.819Z,130
2023-02-03T10:15:56.957Z,123
2023-02-03T10:17:14.346Z,121
2023-02-03T10:18:29.836Z,123
2023-02-03T10:19:51.935Z,124
2023-02-03T10:21:02.170Z,123
2023-02-03T10:22:17.834Z,120
2023-02-03T10:23:28.320Z,126
2023-02-03T10:24:37.590Z,122
2023-02-03T10:25:48.247Z,122
2023-02-03T10:26:58.462Z,120
2023-02-03T10:28:07.104Z,122
2023-02-03T10:29:27.009Z,120
2023-02-03T10:30:42.745Z,121
2023-02-03T10:31:59.234Z,122
2023-02-03T10:33:08.239Z,118
2023-02-03T10:34:19.539Z,122
2023-02-03T10:35:29.243Z,122
2023-02-03T10:36:42.340Z,120
2023-02-03T10:38:00.853Z,120
2023-02-03T10:39:11.492Z,112
2023-02-03T10:40:25.950Z,120
2023-02-03T10:41:37.059Z,118
2023-02-03T10:42:49.932Z,120
2023-02-03T10:44:05.996Z,117
2023-02-03T10:45:15.661Z,115
2023-02-03T10:46:26.350Z,118
2023-02-03T10:47:36.608Z,120
2023-02-03T10:48:46.539Z,122
2023-02-03T10:49:56.552Z,121
2023-02-03T10:51:07.262Z,120
2023-02-03T10:52:21.265Z,120
2023-02-03T10:53:33.435Z,119
2023-02-03T10:54:42.288Z,121
2023-02-03T10:55:51.617Z,116
2023-02-03T10:57:08.323Z,117
2023-02-03T10:58:19.104Z,120
2023-02-03T10:59:32.890Z,117
2023-02-03T11:00:43.247Z,121
2023-02-03T11:01:59.682Z,121
2023-02-03T11:03:13.300Z,116
2023-02-03T11:04:31.292Z,118
2023-02-03T11:05:42.511Z,120
2023-02-03T11:06:51.831Z,119
2023-02-03T11:08:04.510Z,123
2023-02-03T11:09:22.598Z,119
2023-02-03T11:10:35.325Z,119
2023-02-03T11:11:45.350Z,120
2023-02-03T11:12:55.994Z,117
2023-02-03T11:14:15.738Z,119
2023-02-03T11:15:25.450Z,126
2023-02-03T11:16:34.964Z,117
2023-02-03T11:17:45.441Z,124
2023-02-03T11:18:53.907Z,120
2023-02-03T11:20:14.253Z,122
2023-02-03T11:21:23.039Z,119
2023-02-03T11:22:40.098Z,120
2023-02-03T11:23:51.525Z,119
2023-02-03T11:25:08.858Z,121
2023-02-03T11:26:28.388Z,121
2023-02-03T11:27:39.217Z,122
2023-02-03T11:28:48.629Z,123
2023-02-03T11:29:58.769Z,120
2023-02-03T11:31:14.926Z,116
2023-02-03T11:32:26.754Z,116
2023-02-03T11:33:43.062Z,120
2023-02-03T11:34:53.659Z,119
2023-02-03T11:36:03.595Z,120
2023-02-03T11:37:15.434Z,120
2023-02-03T11:38:37.433Z,118
2023-02-03T11:39:47.937Z,117
2023-02-03T11:40:59.001Z,123
2023-02-03T11:42:09.941Z,120
2023-02-03T11:43:25.768Z,123
2023-02-03T11:44:36.882Z,121
2023-02-03T11:45:48.061Z,119
2023-02-03T11:46:59.354Z,120
2023-02-03T11:48:16.773Z,123
2023-02-03T11:49:35.029Z,122
2023-02-03T11:50:54.470Z,119
2023-02-03T11:52:08.202Z,121
2023-02-03T11:53:31.423Z,118
2023-02-03T11:54:51.549Z,123
2023-02-03T11:56:16.089Z,118
2023-02-03T11:57:32.849Z,120
2023-02-03T11:58:53.535Z,122
2023-02-03T12:00:07.909Z,123
2023-02-03T12:01:22.571Z,122
2023-02-03T12:02:43.478Z,120
2023-02-03T12:03:58.751Z,116
2023-02-03T12:05:09.542Z,107
2023-02-03T12:06:26.317Z,112
2023-02-03T12:07:38.494Z,110
2023-02-03T12:08:58.033Z,121
2023-02-03T12:10:13.207Z,118
2023-02-03T12:11:35.835Z,124
2023-02-03T12:12:51.949Z,116
2023-02-03T12:14:07.457Z,121
2023-02-03T12:15:21.124Z,113
2023-02-03T12:16:37.017Z,117
2023-02-03T12:17:51.680Z,126
2023-02-03T12:19:05.916Z,110
2023-02-03T12:20:21.960Z,120
2023-02-03T12:21:40.763Z,111
2023-02-03T12:22:53.546Z,110
2023-02-03T12:24:13.361Z,115
2023-02-03T12:25:29.263Z,108
2023-02-03T12:26:46.472Z,121
2023-02-03T12:28:06.269Z,109
2023-02-03T12:29:15.547Z,120
2023-02-03T12:30:33.960Z,118
2023-02-03T12:31:47.277Z,124
2023-02-03T12:33:05.903Z,111
2023-02-03T12:34:16.393Z,116
2023-02-03T12:35:32.013Z,119
2023-02-03T12:36:43.740Z,122
2023-02-03T12:38:03.486Z,125
2023-02-03T12:39:21.326Z,121
2023-02-03T12:40:33.924Z,121
2023-02-03T12:41:47.787Z,123
2023-02-03T12:42:56.634Z,121
2023-02-03T12:44:06.180Z,118
2023-02-03T12:45:14.899Z,105
2023-02-03T12:46:23.169Z,119
2023-02-03T12:47:38.157Z,120
2023-02-03T12:48:53.713Z,115
2023-02-03T12:50:06.736Z,120
2023-02-03T12:51:23.856Z,123
2023-02-03T12:52:39.625Z,115
2023-02-03T12:53:50.797Z,116
2023-02-03T12:54:59.718Z,116
2023-02-03T12:56:19.290Z,119
2023-02-03T12:57:31.713Z,110
2023-02-03T12:58:46.385Z,117
2023-02-03T13:00:00.251Z,120
2023-02-03T13:01:16.040Z,117
2023-02-03T13:02:25.499Z,124
2023-02-03T13:03:35.663Z,120
2023-02-03T13:04:44.532Z,124
2023-02-03T13:05:56.284Z,123
2023-02-03T13:07:11.496Z,119
2023-02-03T13:08:32.783Z,121
2023-02-03T13:09:47.868Z,121
2023-02-03T13:11:06.789Z,124
2023-02-03T13:12:20.472Z,116
2023-02-03T13:13:31.170Z,117
2023-02-03T13:14:46.143Z,115
2023-02-03T13:15:58.707Z,110
2023-02-03T13:17:09.530Z,117
2023-02-03T13:18:22.343Z,120
2023-02-03T13:19:33.597Z,119
2023-02-03T13:20:42.970Z,121
2023-02-03T13:21:52.936Z,121
2023-02-03T13:23:01.454Z,121
2023-02-03T13:24:10.500Z,120
2023-02-03T13:25:20.715Z,119
2023-02-03T13:26:38.797Z,121
2023-02-03T13:27:47.220Z,119
2023-02-03T13:29:07.612Z,119
2023-02-03T13:30:19.901Z,116
2023-02-03T13:31:33.160Z,116
2023-02-03T13:32:52.810Z,111
2023-02-03T13:34:06.927Z,115
2023-02-03T13:35:33.712Z,106
2023-02-03T13:36:48.873Z,121
2023-02-03T13:38:04.905Z,106
2023-02-03T13:39:22.454Z,112
2023-02-03T13:40:42.545Z,104
2023-02-03T13:41:55.854Z,112
2023-02-03T13:43:20.752Z,111
2023-02-03T13:44:25.546Z,101
2023-02-03T13:45:34.071Z,113
2023-02-03T13:46:43.666Z,113
2023-02-03T13:47:55.442Z,116
2023-02-03T13:49:13.282Z,111
2023-02-03T13:50:28.260Z,118
2023-02-03T13:51:36.525Z,113
2023-02-03T13:52:47.837Z,117
2023-02-03T13:54:06.286Z,111
2023-02-03T13:55:19.796Z,115
2023-02-03T13:56:34.404Z,117
2023-02-03T13:57:44.839Z,119
2023-02-03T13:58:54.060Z,107
2023-02-03T14:00:11.379Z,116
2023-02-03T14:01:27.637Z,113
2023-02-03T14:02:39.050Z,118
2023-02-03T14:03:48.640Z,116
2023-02-03T14:04:56.637Z,121
2023-02-03T14:06:04.721Z,119
2023-02-03T14:07:14.654Z,119
2023-02-03T14:08:35.477Z,121
2023-02-03T14:09:45.089Z,117
2023-02-03T14:10:54.387Z,126
2023-02-03T14:12:12.470Z,121
2023-02-03T14:13:21.713Z,113
2023-02-03T14:14:30.250Z,118
2023-02-03T14:15:39.917Z,117
2023-02-03T14:16:49.612Z,119
2023-02-03T14:17:58.988Z,114
2023-02-03T14:19:11.499Z,114
2023-02-03T14:20:27.717Z,115
2023-02-03T14:21:44.049Z,117
2023-02-03T14:22:56.575Z,119
2023-02-03T14:24:10.232Z,123
2023-02-03T14:25:19.607Z,123
2023-02-03T14:26:29.040Z,124
2023-02-03T14:27:39.813Z,117
2023-02-03T14:28:48.743Z,120
2023-02-03T14:29:57.045Z,115
2023-02-03T14:31:13.307Z,120
2023-02-03T14:32:25.832Z,121
2023-02-03T14:33:39.193Z,122
2023-02-03T14:34:53.119Z,107
2023-02-03T14:36:04.029Z,124
2023-02-03T14:37:14.041Z,119
2023-02-03T14:38:23.785Z,108
2023-02-03T14:39:32.417Z,119
2023-02-03T14:40:45.367Z,122
2023-02-03T14:41:59.738Z,116
2023-02-03T14:43:18.286Z,120
2023-02-03T14:44:36.585Z,118
2023-02-03T14:45:52.345Z,107
2023-02-03T14:47:07.263Z,124
2023-02-03T14:48:19.699Z,109
2023-02-03T14:49:35.729Z,113
2023-02-03T14:50:48.785Z,114
2023-02-03T14:52:04.452Z,111
2023-02-03T14:53:20.156Z,101
2023-02-03T14:54:37.846Z,106
2023-02-03T14:55:46.374Z,106
2023-02-03T14:56:58.374Z,112
2023-02-03T14:58:19.668Z,110
2023-02-03T14:59:36.035Z,117
2023-02-03T15:00:49.842Z,127
2023-02-03T15:01:58.520Z,115
2023-02-03T15:03:10.868Z,116
2023-02-03T15:04:20.184Z,114
2023-02-03T15:05:28.713Z,114
2023-02-03T15:06:36.409Z,103
2023-02-03T15:07:50.885Z,108
2023-02-03T15:08:59.341Z,102
2023-02-03T15:10:06.493Z,100
2023-02-03T15:11:22.557Z,99
2023-02-03T15:12:30.562Z,90
2023-02-03T15:13:38.645Z,90
2023-02-03T15:14:48.554Z,87
2023-02-03T15:15:57.426Z,101
2023-02-03T15:17:07.665Z,101
2023-02-03T15:18:21.073Z,101
2023-02-03T15:19:36.837Z,97
2023-02-03T15:20:45.736Z,97
2023-02-03T15:21:55.889Z,97
2023-02-03T15:23:05.645Z,98
2023-02-03T15:24:25.379Z,98
2023-02-03T15:25:34.179Z,95
2023-02-03T15:26:41.800Z,92
2023-02-03T15:27:50.008Z,90
2023-02-03T15:28:58.513Z,87
2023-02-03T15:30:07.601Z,85
2023-02-03T15:31:22.853Z,75
2023-02-03T15:32:39.481Z,68
2023-02-03T15:33:52.202Z,68
2023-02-03T15:35:00.539Z,74
2023-02-03T15:36:09.778Z,57
2023-02-03T15:37:18.720Z,62
2023-02-03T15:38:27.045Z,62
2023-02-03T15:39:37.557Z,58
2023-02-03T15:40:49.763Z,59
2023-02-03T15:42:00.637Z,52
2023-02-03T15:43:09.941Z,57
2023-02-03T15:44:22.400Z,62
2023-02-03T15:45:37.832Z,53
2023-02-03T15:46:52.577Z,56
2023-02-03T15:48:00.959Z,48
2023-02-03T15:49:11.088Z,51
2023-02-03T15:50:20.641Z,47
2023-02-03T15:51:34.414Z,42
2023-02-03T15:52:46.539Z,48
2023-02-03T15:53:55.762Z,41
2023-02-03T15:55:04.385Z,48
2023-02-03T15:56:19.012Z,47
2023-02-03T15:57:31.579Z,41
2023-02-03T15:58:41.309Z,40
2023-02-03T15:59:49.595Z,47
2023-02-03T16:00:59.253Z,36
2023-02-03T16:02:11.405Z,43
2023-02-03T16:03:29.255Z,39
2023-02-03T16:04:42.352Z,42
2023-02-03T16:05:52.773Z,35
2023-02-03T16:07:00.954Z,33
2023-02-03T16:08:09.671Z,36
2023-02-03T16:09:30.025Z,28
2023-02-03T16:10:38.354Z,31
2023-02-03T16:11:47.749Z,33
2023-02-03T16:12:55.581Z,28
2023-02-03T16:14:14.100Z,28
2023-02-03T16:15:21.361Z,29
2023-02-03T16:16:30.718Z,27
2023-02-03T16:17:43.030Z,30
2023-02-03T16:18:50.850Z,38
2023-02-03T16:20:08.566Z,29
2023-02-03T16:21:17.974Z,33
2023-02-03T16:22:35.674Z,35
2023-02-03T16:23:50.013Z,29
2023-02-03T16:24:58.390Z,35
2023-02-03T16:26:18.397Z,36
2023-02-03T16:27:33.276Z,39
2023-02-03T16:28:42.526Z,42
2023-02-03T16:30:02.778Z,40
2023-02-03T16:31:16.304Z,39
2023-02-03T16:32:31.413Z,41
2023-02-03T16:33:44.698Z,47
2023-02-03T16:34:58.739Z,54
2023-02-03T16:36:14.841Z,54
2023-02-03T16:37:29.374Z,51
2023-02-03T16:38:44.673Z,48
2023-02-03T16:39:59.394Z,61
2023-02-03T16:41:13.511Z,56
2023-02-03T16:42:26.151Z,50